Azusa, California
Current Conditions -  °F | °C
As of 9:49 AM on Friday 21 Nov 2014 (Local Time) from KEMT Reporting Station
Scattered Clouds Scattered Clouds  
Wind Chill: 63°   Ceiling: Unl
Heat Index: 63°   Visibility: 10mi
Dew Point: 54°   Wind: 0mph
Humidity: 72%   Direction: NA
Pressure: 30"   Gusts: NA
Location:  34.13°N, 117.9°W
Report Text: KEMT 211749Z 00000KT 10SM SCT020 17/12 A3000
Loading
Personal Weather Stations






























Interactive Weather Map New forecast layout! Learn more

10-Day Weather Forecast

Advertisements
Track Severe Weather on mobile